sensor_id;sensor_type;location;lat;lon;timestamp;temperature;humidity
12602;DHT22;30282;16.436;99.370;2023-05-07T00:00:09;31.70;99.90
12602;DHT22;30282;16.436;99.370;2023-05-07T00:02:38;31.70;99.90
12602;DHT22;30282;16.436;99.370;2023-05-07T00:05:08;31.80;99.90
12602;DHT22;30282;16.436;99.370;2023-05-07T00:07:37;31.80;99.90
12602;DHT22;30282;16.436;99.370;2023-05-07T00:10:10;31.90;99.90
12602;DHT22;30282;16.436;99.370;2023-05-07T00:12:39;31.90;99.90
12602;DHT22;30282;16.436;99.370;2023-05-07T00:15:09;32.00;99.90
12602;DHT22;30282;16.436;99.370;2023-05-07T00:17:39;32.20;99.90
12602;DHT22;30282;16.436;99.370;2023-05-07T00:20:09;32.20;99.90
12602;DHT22;30282;16.436;99.370;2023-05-07T00:22:38;32.40;99.90
12602;DHT22;30282;16.436;99.370;2023-05-07T00:25:10;32.50;99.90
12602;DHT22;30282;16.436;99.370;2023-05-07T00:27:42;32.50;99.90
12602;DHT22;30282;16.436;99.370;2023-05-07T00:30:12;32.70;99.90
12602;DHT22;30282;16.436;99.370;2023-05-07T00:32:42;32.70;99.90
12602;DHT22;30282;16.436;99.370;2023-05-07T00:35:12;32.80;99.90
12602;DHT22;30282;16.436;99.370;2023-05-07T00:37:44;32.90;99.90
12602;DHT22;30282;16.436;99.370;2023-05-07T00:40:15;32.90;99.90
12602;DHT22;30282;16.436;99.370;2023-05-07T00:42:44;33.00;99.90
12602;DHT22;30282;16.436;99.370;2023-05-07T00:45:16;33.10;99.90
12602;DHT22;30282;16.436;99.370;2023-05-07T00:47:45;33.10;99.90
12602;DHT22;30282;16.436;99.370;2023-05-07T00:50:14;33.20;99.90
12602;DHT22;30282;16.436;99.370;2023-05-07T00:52:44;33.30;99.90
12602;DHT22;30282;16.436;99.370;2023-05-07T00:55:15;33.30;99.90
12602;DHT22;30282;16.436;99.370;2023-05-07T00:57:45;33.40;99.90
12602;DHT22;30282;16.436;99.370;2023-05-07T01:00:15;33.50;99.90
12602;DHT22;30282;16.436;99.370;2023-05-07T01:02:45;33.50;99.90
12602;DHT22;30282;16.436;99.370;2023-05-07T01:05:16;33.60;99.90
12602;DHT22;30282;16.436;99.370;2023-05-07T01:07:49;33.70;99.90
12602;DHT22;30282;16.436;99.370;2023-05-07T01:10:21;33.80;99.90
12602;DHT22;30282;16.436;99.370;2023-05-07T01:12:51;33.80;99.90
12602;DHT22;30282;16.436;99.370;2023-05-07T01:15:21;33.90;99.90
12602;DHT22;30282;16.436;99.370;2023-05-07T01:17:50;33.90;99.90
12602;DHT22;30282;16.436;99.370;2023-05-07T01:20:20;34.00;99.90
12602;DHT22;30282;16.436;99.370;2023-05-07T01:22:51;34.00;99.90
12602;DHT22;30282;16.436;99.370;2023-05-07T01:25:21;34.00;99.90
12602;DHT22;30282;16.436;99.370;2023-05-07T01:27:51;34.10;99.90
12602;DHT22;30282;16.436;99.370;2023-05-07T01:30:21;34.20;99.90
12602;DHT22;30282;16.436;99.370;2023-05-07T01:32:53;34.30;99.90
12602;DHT22;30282;16.436;99.370;2023-05-07T01:35:28;34.30;99.90
12602;DHT22;30282;16.436;99.370;2023-05-07T01:38:00;34.50;99.90
12602;DHT22;30282;16.436;99.370;2023-05-07T01:40:31;34.50;99.90
12602;DHT22;30282;16.436;99.370;2023-05-07T01:43:01;34.50;99.90
12602;DHT22;30282;16.436;99.370;2023-05-07T01:45:31;34.60;99.90
12602;DHT22;30282;16.436;99.370;2023-05-07T01:48:01;34.70;99.90
12602;DHT22;30282;16.436;99.370;2023-05-07T01:50:31;34.70;99.90
12602;DHT22;30282;16.436;99.370;2023-05-07T01:53:03;34.80;99.90
12602;DHT22;30282;16.436;99.370;2023-05-07T01:55:32;34.80;99.90
12602;DHT22;30282;16.436;99.370;2023-05-07T01:58:03;34.90;99.90
12602;DHT22;30282;16.436;99.370;2023-05-07T02:00:33;35.00;99.90
12602;DHT22;30282;16.436;99.370;2023-05-07T02:03:02;35.10;99.90
12602;DHT22;30282;16.436;99.370;2023-05-07T02:05:31;35.20;99.90
12602;DHT22;30282;16.436;99.370;2023-05-07T02:08:03;35.30;99.90
12602;DHT22;30282;16.436;99.370;2023-05-07T02:10:41;35.30;99.90
12602;DHT22;30282;16.436;99.370;2023-05-07T02:13:10;35.40;99.90
12602;DHT22;30282;16.436;99.370;2023-05-07T02:15:40;35.40;99.90
12602;DHT22;30282;16.436;99.370;2023-05-07T02:18:09;35.50;99.90
12602;DHT22;30282;16.436;99.370;2023-05-07T02:20:38;35.60;99.90
12602;DHT22;30282;16.436;99.370;2023-05-07T02:23:09;35.70;99.90
12602;DHT22;30282;16.436;99.370;2023-05-07T02:25:39;35.70;99.90
12602;DHT22;30282;16.436;99.370;2023-05-07T02:28:08;35.90;99.90
12602;DHT22;30282;16.436;99.370;2023-05-07T02:30:47;35.90;99.90
12602;DHT22;30282;16.436;99.370;2023-05-07T02:33:17;36.00;99.90
12602;DHT22;30282;16.436;99.370;2023-05-07T02:35:46;36.10;99.90
12602;DHT22;30282;16.436;99.370;2023-05-07T02:38:18;36.30;99.90
12602;DHT22;30282;16.436;99.370;2023-05-07T02:40:47;36.40;99.90
12602;DHT22;30282;16.436;99.370;2023-05-07T02:43:34;36.40;99.90
12602;DHT22;30282;16.436;99.370;2023-05-07T02:46:03;36.50;99.90
12602;DHT22;30282;16.436;99.370;2023-05-07T02:48:33;36.60;99.90
12602;DHT22;30282;16.436;99.370;2023-05-07T02:51:03;36.60;99.90
12602;DHT22;30282;16.436;99.370;2023-05-07T02:53:34;36.60;99.90
12602;DHT22;30282;16.436;99.370;2023-05-07T02:56:04;36.70;99.90
12602;DHT22;30282;16.436;99.370;2023-05-07T02:58:33;36.90;99.90
12602;DHT22;30282;16.436;99.370;2023-05-07T03:01:03;37.00;99.90
12602;DHT22;30282;16.436;99.370;2023-05-07T03:03:32;37.00;99.90
12602;DHT22;30282;16.436;99.370;2023-05-07T03:06:02;37.10;99.90
12602;DHT22;30282;16.436;99.370;2023-05-07T03:08:33;37.20;99.90
12602;DHT22;30282;16.436;99.370;2023-05-07T03:11:19;37.20;99.90
12602;DHT22;30282;16.436;99.370;2023-05-07T03:14:10;37.30;99.90
12602;DHT22;30282;16.436;99.370;2023-05-07T03:16:40;37.40;99.90
12602;DHT22;30282;16.436;99.370;2023-05-07T03:19:09;37.50;99.90
12602;DHT22;30282;16.436;99.370;2023-05-07T03:21:39;37.60;99.90
12602;DHT22;30282;16.436;99.370;2023-05-07T03:24:10;37.70;99.90
12602;DHT22;30282;16.436;99.370;2023-05-07T03:26:51;37.80;99.90
12602;DHT22;30282;16.436;99.370;2023-05-07T03:29:24;37.90;99.90
12602;DHT22;30282;16.436;99.370;2023-05-07T03:31:54;38.00;99.90
12602;DHT22;30282;16.436;99.370;2023-05-07T03:34:23;38.10;99.90
12602;DHT22;30282;16.436;99.370;2023-05-07T03:36:52;38.20;99.90
12602;DHT22;30282;16.436;99.370;2023-05-07T03:39:25;38.30;99.90
12602;DHT22;30282;16.436;99.370;2023-05-07T03:41:54;38.40;99.90
12602;DHT22;30282;16.436;99.370;2023-05-07T03:44:24;38.50;99.90
12602;DHT22;30282;16.436;99.370;2023-05-07T03:46:53;38.60;99.90
12602;DHT22;30282;16.436;99.370;2023-05-07T03:49:22;38.50;99.90
12602;DHT22;30282;16.436;99.370;2023-05-07T03:51:52;38.70;99.90
12602;DHT22;30282;16.436;99.370;2023-05-07T03:54:23;38.70;99.90
12602;DHT22;30282;16.436;99.370;2023-05-07T03:56:52;38.80;99.90
12602;DHT22;30282;16.436;99.370;2023-05-07T03:59:21;38.90;99.90
12602;DHT22;30282;16.436;99.370;2023-05-07T04:01:51;39.00;99.90
12602;DHT22;30282;16.436;99.370;2023-05-07T04:04:20;39.00;99.90
12602;DHT22;30282;16.436;99.370;2023-05-07T04:06:49;39.00;99.90
12602;DHT22;30282;16.436;99.370;2023-05-07T04:09:19;38.90;99.90
12602;DHT22;30282;16.436;99.370;2023-05-07T04:11:50;39.00;99.90
12602;DHT22;30282;16.436;99.370;2023-05-07T04:14:19;39.20;99.90
12602;DHT22;30282;16.436;99.370;2023-05-07T04:16:48;39.40;99.90
12602;DHT22;30282;16.436;99.370;2023-05-07T04:19:18;39.60;99.90
12602;DHT22;30282;16.436;99.370;2023-05-07T04:21:47;39.70;99.90
12602;DHT22;30282;16.436;99.370;2023-05-07T04:24:17;39.80;99.90
12602;DHT22;30282;16.436;99.370;2023-05-07T04:26:46;39.80;99.90
12602;DHT22;30282;16.436;99.370;2023-05-07T04:29:17;39.70;99.90
12602;DHT22;30282;16.436;99.370;2023-05-07T04:31:46;39.70;99.90
12602;DHT22;30282;16.436;99.370;2023-05-07T04:34:16;39.80;99.90
12602;DHT22;30282;16.436;99.370;2023-05-07T04:36:45;39.80;99.90
12602;DHT22;30282;16.436;99.370;2023-05-07T04:39:17;39.80;99.90
12602;DHT22;30282;16.436;99.370;2023-05-07T04:41:47;39.80;99.90
12602;DHT22;30282;16.436;99.370;2023-05-07T04:44:18;39.70;99.90
12602;DHT22;30282;16.436;99.370;2023-05-07T04:46:47;39.60;99.90
12602;DHT22;30282;16.436;99.370;2023-05-07T04:49:17;39.60;99.90
12602;DHT22;30282;16.436;99.370;2023-05-07T04:51:46;39.70;99.90
12602;DHT22;30282;16.436;99.370;2023-05-07T04:54:15;39.90;99.90
12602;DHT22;30282;16.436;99.370;2023-05-07T04:56:45;40.00;99.90
12602;DHT22;30282;16.436;99.370;2023-05-07T04:59:14;40.10;99.90
12602;DHT22;30282;16.436;99.370;2023-05-07T05:01:45;40.20;99.90
12602;DHT22;30282;16.436;99.370;2023-05-07T05:04:14;40.30;99.90
12602;DHT22;30282;16.436;99.370;2023-05-07T05:06:44;40.40;99.90
12602;DHT22;30282;16.436;99.370;2023-05-07T05:09:15;40.40;99.90
12602;DHT22;30282;16.436;99.370;2023-05-07T05:11:45;40.50;99.90
12602;DHT22;30282;16.436;99.370;2023-05-07T05:14:14;40.60;99.90
12602;DHT22;30282;16.436;99.370;2023-05-07T05:16:45;40.70;99.90
12602;DHT22;30282;16.436;99.370;2023-05-07T05:19:15;40.70;99.90
12602;DHT22;30282;16.436;99.370;2023-05-07T05:21:44;40.80;99.90
12602;DHT22;30282;16.436;99.370;2023-05-07T05:24:13;40.80;99.90
12602;DHT22;30282;16.436;99.370;2023-05-07T05:26:43;40.90;99.90
12602;DHT22;30282;16.436;99.370;2023-05-07T05:29:12;40.90;99.50
12602;DHT22;30282;16.436;99.370;2023-05-07T05:31:41;41.00;99.30
12602;DHT22;30282;16.436;99.370;2023-05-07T05:34:12;41.00;99.00
12602;DHT22;30282;16.436;99.370;2023-05-07T05:36:44;41.10;99.30
12602;DHT22;30282;16.436;99.370;2023-05-07T05:39:17;41.20;99.20
12602;DHT22;30282;16.436;99.370;2023-05-07T05:41:50;41.20;98.70
12602;DHT22;30282;16.436;99.370;2023-05-07T05:44:19;41.20;98.50
12602;DHT22;30282;16.436;99.370;2023-05-07T05:46:48;41.10;98.80
12602;DHT22;30282;16.436;99.370;2023-05-07T05:49:20;41.00;98.80
12602;DHT22;30282;16.436;99.370;2023-05-07T05:51:49;41.00;99.30
12602;DHT22;30282;16.436;99.370;2023-05-07T05:54:18;41.00;98.80
12602;DHT22;30282;16.436;99.370;2023-05-07T05:56:48;41.00;99.00
12602;DHT22;30282;16.436;99.370;2023-05-07T05:59:20;41.00;98.40
12602;DHT22;30282;16.436;99.370;2023-05-07T06:01:50;40.80;98.20
12602;DHT22;30282;16.436;99.370;2023-05-07T06:04:21;40.80;98.60
12602;DHT22;30282;16.436;99.370;2023-05-07T06:06:53;40.90;98.60
12602;DHT22;30282;16.436;99.370;2023-05-07T06:09:23;40.80;98.10
12602;DHT22;30282;16.436;99.370;2023-05-07T06:11:53;40.80;98.30
12602;DHT22;30282;16.436;99.370;2023-05-07T06:14:22;40.90;98.60
12602;DHT22;30282;16.436;99.370;2023-05-07T06:16:51;41.10;98.30
12602;DHT22;30282;16.436;99.370;2023-05-07T06:19:23;41.10;98.00
12602;DHT22;30282;16.436;99.370;2023-05-07T06:21:53;41.20;98.80
12602;DHT22;30282;16.436;99.370;2023-05-07T06:24:23;41.40;98.60
12602;DHT22;30282;16.436;99.370;2023-05-07T06:26:53;41.40;98.20
12602;DHT22;30282;16.436;99.370;2023-05-07T06:29:23;41.50;98.20
12602;DHT22;30282;16.436;99.370;2023-05-07T06:31:53;41.50;97.80
12602;DHT22;30282;16.436;99.370;2023-05-07T06:34:24;41.60;97.60
12602;DHT22;30282;16.436;99.370;2023-05-07T06:36:53;41.60;97.80
12602;DHT22;30282;16.436;99.370;2023-05-07T06:39:23;41.70;97.70
12602;DHT22;30282;16.436;99.370;2023-05-07T06:41:52;41.80;97.50
12602;DHT22;30282;16.436;99.370;2023-05-07T06:44:21;42.00;96.80
12602;DHT22;30282;16.436;99.370;2023-05-07T06:46:51;42.00;97.40
12602;DHT22;30282;16.436;99.370;2023-05-07T06:49:20;41.80;97.00
12602;DHT22;30282;16.436;99.370;2023-05-07T06:51:51;41.80;97.80
12602;DHT22;30282;16.436;99.370;2023-05-07T06:54:21;41.60;97.40
12602;DHT22;30282;16.436;99.370;2023-05-07T06:56:54;41.60;98.10
12602;DHT22;30282;16.436;99.370;2023-05-07T06:59:27;41.70;98.10
12602;DHT22;30282;16.436;99.370;2023-05-07T07:01:56;41.80;97.70
12602;DHT22;30282;16.436;99.370;2023-05-07T07:04:26;42.00;97.70
12602;DHT22;30282;16.436;99.370;2023-05-07T07:06:57;42.00;97.90
12602;DHT22;30282;16.436;99.370;2023-05-07T07:09:26;42.10;97.60
12602;DHT22;30282;16.436;99.370;2023-05-07T07:11:56;42.10;97.50
12602;DHT22;30282;16.436;99.370;2023-05-07T07:14:25;42.20;97.40
12602;DHT22;30282;16.436;99.370;2023-05-07T07:16:54;42.30;97.10
12602;DHT22;30282;16.436;99.370;2023-05-07T07:19:24;42.30;96.50
12602;DHT22;30282;16.436;99.370;2023-05-07T07:21:55;42.20;96.70
12602;DHT22;30282;16.436;99.370;2023-05-07T07:24:27;42.20;96.70
12602;DHT22;30282;16.436;99.370;2023-05-07T07:26:57;42.30;96.60
12602;DHT22;30282;16.436;99.370;2023-05-07T07:29:29;42.30;96.50
12602;DHT22;30282;16.436;99.370;2023-05-07T07:31:58;42.30;97.30
12602;DHT22;30282;16.436;99.370;2023-05-07T07:34:30;42.30;97.20
12602;DHT22;30282;16.436;99.370;2023-05-07T07:37:01;42.40;97.00
12602;DHT22;30282;16.436;99.370;2023-05-07T07:39:33;42.30;96.80
12602;DHT22;30282;16.436;99.370;2023-05-07T07:42:07;42.30;96.80
12602;DHT22;30282;16.436;99.370;2023-05-07T07:44:39;42.20;97.00
12602;DHT22;30282;16.436;99.370;2023-05-07T07:47:11;42.20;96.70
12602;DHT22;30282;16.436;99.370;2023-05-07T07:49:43;42.30;96.90
12602;DHT22;30282;16.436;99.370;2023-05-07T07:52:15;42.40;96.00
12602;DHT22;30282;16.436;99.370;2023-05-07T07:54:45;42.40;96.00
12602;DHT22;30282;16.436;99.370;2023-05-07T07:57:14;42.30;96.60
12602;DHT22;30282;16.436;99.370;2023-05-07T07:59:43;42.20;96.00
12602;DHT22;30282;16.436;99.370;2023-05-07T08:02:13;42.10;96.40
12602;DHT22;30282;16.436;99.370;2023-05-07T08:04:42;42.10;96.40
12602;DHT22;30282;16.436;99.370;2023-05-07T08:07:13;42.10;97.10
12602;DHT22;30282;16.436;99.370;2023-05-07T08:09:45;42.20;96.50
12602;DHT22;30282;16.436;99.370;2023-05-07T08:12:14;42.20;96.60
12602;DHT22;30282;16.436;99.370;2023-05-07T08:14:44;42.20;96.60
12602;DHT22;30282;16.436;99.370;2023-05-07T08:17:14;42.20;96.50
12602;DHT22;30282;16.436;99.370;2023-05-07T08:19:43;42.30;96.60
12602;DHT22;30282;16.436;99.370;2023-05-07T08:22:17;42.30;96.60
12602;DHT22;30282;16.436;99.370;2023-05-07T08:24:46;42.30;96.60
12602;DHT22;30282;16.436;99.370;2023-05-07T08:27:16;42.30;96.70
12602;DHT22;30282;16.436;99.370;2023-05-07T08:29:45;42.10;96.50
12602;DHT22;30282;16.436;99.370;2023-05-07T08:32:15;42.10;96.70
12602;DHT22;30282;16.436;99.370;2023-05-07T08:34:45;42.20;96.40
12602;DHT22;30282;16.436;99.370;2023-05-07T08:37:16;42.30;96.30
12602;DHT22;30282;16.436;99.370;2023-05-07T08:39:45;42.30;96.50
12602;DHT22;30282;16.436;99.370;2023-05-07T08:42:16;42.30;96.50
12602;DHT22;30282;16.436;99.370;2023-05-07T08:44:46;42.30;96.50
12602;DHT22;30282;16.436;99.370;2023-05-07T08:47:17;42.30;96.70
12602;DHT22;30282;16.436;99.370;2023-05-07T08:49:46;42.30;96.30
12602;DHT22;30282;16.436;99.370;2023-05-07T08:52:18;42.20;96.30
12602;DHT22;30282;16.436;99.370;2023-05-07T08:54:48;42.20;96.50
12602;DHT22;30282;16.436;99.370;2023-05-07T08:57:17;42.20;96.60
12602;DHT22;30282;16.436;99.370;2023-05-07T08:59:48;42.30;96.60
12602;DHT22;30282;16.436;99.370;2023-05-07T09:02:17;42.30;96.40
12602;DHT22;30282;16.436;99.370;2023-05-07T09:04:47;42.30;96.40
12602;DHT22;30282;16.436;99.370;2023-05-07T09:07:18;42.30;96.60
12602;DHT22;30282;16.436;99.370;2023-05-07T09:09:48;42.30;96.50
12602;DHT22;30282;16.436;99.370;2023-05-07T09:12:18;42.30;96.50
12602;DHT22;30282;16.436;99.370;2023-05-07T09:14:48;42.30;96.20
12602;DHT22;30282;16.436;99.370;2023-05-07T09:17:18;42.30;96.30
12602;DHT22;30282;16.436;99.370;2023-05-07T09:19:47;42.20;96.20
12602;DHT22;30282;16.436;99.370;2023-05-07T09:22:18;42.20;96.10
12602;DHT22;30282;16.436;99.370;2023-05-07T09:24:49;42.10;96.10
12602;DHT22;30282;16.436;99.370;2023-05-07T09:27:18;42.00;95.90
12602;DHT22;30282;16.436;99.370;2023-05-07T09:29:48;41.90;95.90
12602;DHT22;30282;16.436;99.370;2023-05-07T09:32:17;41.90;96.30
12602;DHT22;30282;16.436;99.370;2023-05-07T09:34:49;41.90;96.00
12602;DHT22;30282;16.436;99.370;2023-05-07T09:37:21;41.80;96.40
12602;DHT22;30282;16.436;99.370;2023-05-07T09:39:50;41.80;96.30
12602;DHT22;30282;16.436;99.370;2023-05-07T09:42:24;41.80;96.00
12602;DHT22;30282;16.436;99.370;2023-05-07T09:44:54;41.80;96.30
12602;DHT22;30282;16.436;99.370;2023-05-07T09:47:25;41.70;96.20
12602;DHT22;30282;16.436;99.370;2023-05-07T09:50:00;41.70;96.40
12602;DHT22;30282;16.436;99.370;2023-05-07T09:52:35;41.60;96.30
12602;DHT22;30282;16.436;99.370;2023-05-07T09:55:05;41.60;96.40
12602;DHT22;30282;16.436;99.370;2023-05-07T09:57:35;41.60;96.30
12602;DHT22;30282;16.436;99.370;2023-05-07T10:00:07;41.50;96.30
12602;DHT22;30282;16.436;99.370;2023-05-07T10:02:38;41.30;96.40
12602;DHT22;30282;16.436;99.370;2023-05-07T10:05:14;41.20;96.50
12602;DHT22;30282;16.436;99.370;2023-05-07T10:07:45;41.20;96.60
12602;DHT22;30282;16.436;99.370;2023-05-07T10:10:15;41.10;96.70
12602;DHT22;30282;16.436;99.370;2023-05-07T10:12:45;41.10;96.80
12602;DHT22;30282;16.436;99.370;2023-05-07T10:15:15;41.00;96.70
12602;DHT22;30282;16.436;99.370;2023-05-07T10:17:45;41.00;96.70
12602;DHT22;30282;16.436;99.370;2023-05-07T10:20:15;41.00;97.00
12602;DHT22;30282;16.436;99.370;2023-05-07T10:22:49;40.90;96.90
12602;DHT22;30282;16.436;99.370;2023-05-07T10:25:22;40.90;96.80
12602;DHT22;30282;16.436;99.370;2023-05-07T10:27:53;40.90;96.80
12602;DHT22;30282;16.436;99.370;2023-05-07T10:30:26;40.70;96.90
12602;DHT22;30282;16.436;99.370;2023-05-07T10:33:03;40.70;96.90
12602;DHT22;30282;16.436;99.370;2023-05-07T10:35:43;40.60;97.00
12602;DHT22;30282;16.436;99.370;2023-05-07T10:38:15;40.50;97.10
12602;DHT22;30282;16.436;99.370;2023-05-07T10:40:45;40.50;97.00
12602;DHT22;30282;16.436;99.370;2023-05-07T10:43:14;40.40;97.10
12602;DHT22;30282;16.436;99.370;2023-05-07T10:45:45;40.30;97.10
12602;DHT22;30282;16.436;99.370;2023-05-07T10:48:34;40.30;97.30
12602;DHT22;30282;16.436;99.370;2023-05-07T10:51:23;40.20;97.50
12602;DHT22;30282;16.436;99.370;2023-05-07T10:54:21;40.20;97.40
12602;DHT22;30282;16.436;99.370;2023-05-07T10:56:52;40.20;97.30
12602;DHT22;30282;16.436;99.370;2023-05-07T10:59:39;40.10;97.40
12602;DHT22;30282;16.436;99.370;2023-05-07T11:02:12;40.10;97.40
12602;DHT22;30282;16.436;99.370;2023-05-07T11:04:42;40.00;97.50
12602;DHT22;30282;16.436;99.370;2023-05-07T11:07:29;40.00;97.70
12602;DHT22;30282;16.436;99.370;2023-05-07T11:10:05;39.90;98.10
12602;DHT22;30282;16.436;99.370;2023-05-07T11:12:51;39.90;97.90
12602;DHT22;30282;16.436;99.370;2023-05-07T11:15:40;39.80;98.10
12602;DHT22;30282;16.436;99.370;2023-05-07T11:18:14;39.80;98.30
12602;DHT22;30282;16.436;99.370;2023-05-07T11:20:56;39.80;98.30
12602;DHT22;30282;16.436;99.370;2023-05-07T11:23:56;39.70;98.40
12602;DHT22;30282;16.436;99.370;2023-05-07T11:26:32;39.70;98.50
12602;DHT22;30282;16.436;99.370;2023-05-07T11:29:12;39.60;98.70
12602;DHT22;30282;16.436;99.370;2023-05-07T11:31:41;39.50;98.60
12602;DHT22;30282;16.436;99.370;2023-05-07T11:34:13;39.50;98.70
12602;DHT22;30282;16.436;99.370;2023-05-07T11:36:43;39.40;98.90
12602;DHT22;30282;16.436;99.370;2023-05-07T11:39:28;39.30;98.90
12602;DHT22;30282;16.436;99.370;2023-05-07T11:42:00;39.30;99.10
12602;DHT22;30282;16.436;99.370;2023-05-07T11:44:42;39.20;99.00
12602;DHT22;30282;16.436;99.370;2023-05-07T11:47:17;39.10;99.20
12602;DHT22;30282;16.436;99.370;2023-05-07T11:49:47;39.10;99.20
12602;DHT22;30282;16.436;99.370;2023-05-07T11:52:17;39.00;99.40
12602;DHT22;30282;16.436;99.370;2023-05-07T11:54:50;39.00;99.50
12602;DHT22;30282;16.436;99.370;2023-05-07T11:57:24;38.90;99.50
12602;DHT22;30282;16.436;99.370;2023-05-07T11:59:54;38.90;99.90
12602;DHT22;30282;16.436;99.370;2023-05-07T12:02:24;38.80;99.70
12602;DHT22;30282;16.436;99.370;2023-05-07T12:04:53;38.80;99.90
12602;DHT22;30282;16.436;99.370;2023-05-07T12:07:24;38.70;99.80
12602;DHT22;30282;16.436;99.370;2023-05-07T12:09:54;38.70;99.90
12602;DHT22;30282;16.436;99.370;2023-05-07T12:12:25;38.60;99.90
12602;DHT22;30282;16.436;99.370;2023-05-07T12:14:55;38.60;99.90
12602;DHT22;30282;16.436;99.370;2023-05-07T12:17:27;38.50;99.90
12602;DHT22;30282;16.436;99.370;2023-05-07T12:19:56;38.50;99.90
12602;DHT22;30282;16.436;99.370;2023-05-07T12:22:26;38.40;99.90
12602;DHT22;30282;16.436;99.370;2023-05-07T12:24:58;38.40;99.90
12602;DHT22;30282;16.436;99.370;2023-05-07T12:27:29;38.30;99.90
12602;DHT22;30282;16.436;99.370;2023-05-07T12:29:59;38.30;99.90
12602;DHT22;30282;16.436;99.370;2023-05-07T12:32:28;38.20;99.90
12602;DHT22;30282;16.436;99.370;2023-05-07T12:34:57;38.20;99.90
12602;DHT22;30282;16.436;99.370;2023-05-07T12:37:27;38.20;99.90
12602;DHT22;30282;16.436;99.370;2023-05-07T12:40:06;38.10;99.90
12602;DHT22;30282;16.436;99.370;2023-05-07T12:42:40;38.10;99.90
12602;DHT22;30282;16.436;99.370;2023-05-07T12:45:11;38.10;99.90
12602;DHT22;30282;16.436;99.370;2023-05-07T12:47:44;38.00;99.90
12602;DHT22;30282;16.436;99.370;2023-05-07T12:50:14;38.00;99.90
12602;DHT22;30282;16.436;99.370;2023-05-07T12:52:44;37.90;99.90
12602;DHT22;30282;16.436;99.370;2023-05-07T12:55:15;38.00;99.90
12602;DHT22;30282;16.436;99.370;2023-05-07T12:57:48;37.90;99.90
12602;DHT22;30282;16.436;99.370;2023-05-07T13:00:32;37.80;99.90
12602;DHT22;30282;16.436;99.370;2023-05-07T13:03:01;37.80;99.90
12602;DHT22;30282;16.436;99.370;2023-05-07T13:05:30;37.80;99.90
12602;DHT22;30282;16.436;99.370;2023-05-07T13:08:00;37.80;99.90
12602;DHT22;30282;16.436;99.370;2023-05-07T13:10:30;37.80;99.90
12602;DHT22;30282;16.436;99.370;2023-05-07T13:13:01;37.70;99.90
12602;DHT22;30282;16.436;99.370;2023-05-07T13:15:30;37.70;99.90
12602;DHT22;30282;16.436;99.370;2023-05-07T13:17:59;37.60;99.90
12602;DHT22;30282;16.436;99.370;2023-05-07T13:20:31;37.60;99.90
12602;DHT22;30282;16.436;99.370;2023-05-07T13:23:01;37.60;99.90
12602;DHT22;30282;16.436;99.370;2023-05-07T13:25:31;37.50;99.90
12602;DHT22;30282;16.436;99.370;2023-05-07T13:28:04;37.30;99.90
12602;DHT22;30282;16.436;99.370;2023-05-07T13:30:36;37.40;99.90
12602;DHT22;30282;16.436;99.370;2023-05-07T13:33:06;37.30;99.90
12602;DHT22;30282;16.436;99.370;2023-05-07T13:35:35;37.30;99.90
12602;DHT22;30282;16.436;99.370;2023-05-07T13:38:05;37.20;99.90
12602;DHT22;30282;16.436;99.370;2023-05-07T13:40:34;37.20;99.90
12602;DHT22;30282;16.436;99.370;2023-05-07T13:43:06;37.00;99.90
12602;DHT22;30282;16.436;99.370;2023-05-07T13:45:36;37.00;99.90
12602;DHT22;30282;16.436;99.370;2023-05-07T13:48:05;36.90;99.90
12602;DHT22;30282;16.436;99.370;2023-05-07T13:50:35;36.90;99.90
12602;DHT22;30282;16.436;99.370;2023-05-07T13:53:04;36.80;99.90
12602;DHT22;30282;16.436;99.370;2023-05-07T13:55:34;36.90;99.90
12602;DHT22;30282;16.436;99.370;2023-05-07T13:58:05;36.90;99.90
12602;DHT22;30282;16.436;99.370;2023-05-07T14:00:34;36.90;99.90
12602;DHT22;30282;16.436;99.370;2023-05-07T14:03:05;36.90;99.90
12602;DHT22;30282;16.436;99.370;2023-05-07T14:05:34;36.90;99.90
12602;DHT22;30282;16.436;99.370;2023-05-07T14:08:04;36.80;99.90
12602;DHT22;30282;16.436;99.370;2023-05-07T14:10:39;36.80;99.90
12602;DHT22;30282;16.436;99.370;2023-05-07T14:13:13;36.80;99.90
12602;DHT22;30282;16.436;99.370;2023-05-07T14:15:45;36.80;99.90
12602;DHT22;30282;16.436;99.370;2023-05-07T14:18:16;36.80;99.90
12602;DHT22;30282;16.436;99.370;2023-05-07T14:20:45;36.70;99.90
12602;DHT22;30282;16.436;99.370;2023-05-07T14:23:15;36.60;99.90
12602;DHT22;30282;16.436;99.370;2023-05-07T14:25:46;36.50;99.90
12602;DHT22;30282;16.436;99.370;2023-05-07T14:28:18;36.50;99.90
12602;DHT22;30282;16.436;99.370;2023-05-07T14:30:49;36.40;99.90
12602;DHT22;30282;16.436;99.370;2023-05-07T14:33:19;36.40;99.90
12602;DHT22;30282;16.436;99.370;2023-05-07T14:35:48;36.60;99.90
12602;DHT22;30282;16.436;99.370;2023-05-07T14:38:18;36.60;99.90
12602;DHT22;30282;16.436;99.370;2023-05-07T14:40:47;36.50;99.90
12602;DHT22;30282;16.436;99.370;2023-05-07T14:43:18;36.40;99.90
12602;DHT22;30282;16.436;99.370;2023-05-07T14:45:48;36.40;99.90
12602;DHT22;30282;16.436;99.370;2023-05-07T14:48:17;36.40;99.90
12602;DHT22;30282;16.436;99.370;2023-05-07T14:50:49;36.40;99.90
12602;DHT22;30282;16.436;99.370;2023-05-07T14:53:19;36.30;99.90
12602;DHT22;30282;16.436;99.370;2023-05-07T14:55:48;36.20;99.90
12602;DHT22;30282;16.436;99.370;2023-05-07T14:58:19;36.20;99.90
12602;DHT22;30282;16.436;99.370;2023-05-07T15:00:51;36.20;99.90
12602;DHT22;30282;16.436;99.370;2023-05-07T15:03:21;36.20;99.90
12602;DHT22;30282;16.436;99.370;2023-05-07T15:05:53;36.20;99.90
12602;DHT22;30282;16.436;99.370;2023-05-07T15:08:22;36.20;99.90
12602;DHT22;30282;16.436;99.370;2023-05-07T15:10:52;36.20;99.90
12602;DHT22;30282;16.436;99.370;2023-05-07T15:13:26;36.10;99.90
12602;DHT22;30282;16.436;99.370;2023-05-07T15:15:55;36.10;99.90
12602;DHT22;30282;16.436;99.370;2023-05-07T15:18:24;36.00;99.90
12602;DHT22;30282;16.436;99.370;2023-05-07T15:20:55;36.00;99.90
12602;DHT22;30282;16.436;99.370;2023-05-07T15:23:24;36.00;99.90
12602;DHT22;30282;16.436;99.370;2023-05-07T15:25:54;36.00;99.90
12602;DHT22;30282;16.436;99.370;2023-05-07T15:28:25;35.90;99.90
12602;DHT22;30282;16.436;99.370;2023-05-07T15:30:55;35.90;99.90
12602;DHT22;30282;16.436;99.370;2023-05-07T15:33:25;35.90;99.90
12602;DHT22;30282;16.436;99.370;2023-05-07T15:35:57;35.80;99.90
12602;DHT22;30282;16.436;99.370;2023-05-07T15:38:27;35.80;99.90